Time;durP1;ratioP1;P1;durP2;ratioP2;P2;SDS_P1;SDS_P2;PMS_P1;PMS_P2;Temp;Humidity;BMP_temperature;BMP_pressure;BME280_temperature;BME280_humidity;BME280_pressure;Samples;Min_cycle;Max_cycle;Signal;HPM_P1;HPM_P2
2023/12/20 00:02:00;;;;;;;10.60;8.30;;;3.20;99.90;;;;;;5064142;28;20279;-60
2023/12/20 00:04:27;;;;;;;11.17;9.37;;;3.20;99.90;;;;;;5059674;28;20255;-59
2023/12/20 00:06:56;;;;;;;10.93;8.50;;;3.20;99.90;;;;;;5065729;28;20199;-59
2023/12/20 00:09:23;;;;;;;9.57;7.77;;;3.20;99.90;;;;;;5060663;28;20279;-59
2023/12/20 00:11:52;;;;;;;8.43;6.97;;;3.10;99.90;;;;;;5032293;28;20200;-59
2023/12/20 00:14:19;;;;;;;7.50;6.80;;;3.20;99.90;;;;;;5049428;28;20191;-59
2023/12/20 00:16:47;;;;;;;6.63;6.03;;;3.10;99.90;;;;;;5065183;28;20205;-59
2023/12/20 00:19:15;;;;;;;9.10;6.47;;;3.10;99.90;;;;;;5070973;28;20199;-59
2023/12/20 00:21:42;;;;;;;9.83;7.47;;;3.10;99.90;;;;;;5072370;28;20215;-59
2023/12/20 00:24:09;;;;;;;8.37;7.00;;;3.10;99.90;;;;;;5061949;28;20199;-59
2023/12/20 00:26:36;;;;;;;9.27;7.67;;;3.10;99.90;;;;;;5063536;28;20200;-59
2023/12/20 00:29:03;;;;;;;8.90;8.00;;;3.20;99.90;;;;;;5071612;28;20220;-59
2023/12/20 00:31:29;;;;;;;12.17;8.00;;;3.20;99.90;;;;;;5061301;28;20212;-59
2023/12/20 00:33:57;;;;;;;14.07;7.77;;;3.30;99.90;;;;;;5062656;28;20219;-59
2023/12/20 00:36:25;;;;;;;10.10;7.77;;;3.40;99.90;;;;;;5063869;28;20217;-59
2023/12/20 00:38:52;;;;;;;9.53;7.90;;;3.30;99.90;;;;;;5068752;28;20651;-59
2023/12/20 00:41:19;;;;;;;9.27;7.90;;;3.40;99.90;;;;;;5032161;28;20350;-59
2023/12/20 00:43:46;;;;;;;9.33;7.73;;;3.30;99.90;;;;;;5040428;28;20716;-59
2023/12/20 00:46:13;;;;;;;8.33;6.50;;;3.30;99.90;;;;;;5062883;28;20200;-59
2023/12/20 00:48:41;;;;;;;9.87;7.47;;;3.20;99.90;;;;;;5054084;28;20278;-59
2023/12/20 00:51:09;;;;;;;7.97;7.23;;;3.20;99.90;;;;;;5057204;28;21044;-59
2023/12/20 00:53:37;;;;;;;9.07;8.13;;;3.20;99.90;;;;;;5052979;28;20694;-60
2023/12/20 00:56:04;;;;;;;9.47;8.00;;;3.10;99.90;;;;;;5062751;28;20724;-59
2023/12/20 00:58:32;;;;;;;10.37;7.60;;;3.10;99.90;;;;;;5070152;28;20638;-59
2023/12/20 01:00:59;;;;;;;10.70;8.07;;;3.10;99.90;;;;;;5057911;28;20232;-59
2023/12/20 01:03:26;;;;;;;10.43;8.33;;;3.20;99.90;;;;;;5052802;28;20699;-59
2023/12/20 01:05:53;;;;;;;8.73;7.90;;;3.20;99.90;;;;;;5062907;28;20197;-59
2023/12/20 01:08:19;;;;;;;9.73;7.47;;;3.20;99.90;;;;;;5070659;28;20234;-59
2023/12/20 01:10:48;;;;;;;7.50;6.80;;;3.10;99.90;;;;;;5036937;28;20207;-60
2023/12/20 01:13:15;;;;;;;7.23;6.63;;;3.10;99.90;;;;;;5043112;28;20601;-60
2023/12/20 01:15:42;;;;;;;8.17;6.30;;;3.10;99.90;;;;;;5057365;28;20200;-60
2023/12/20 01:18:09;;;;;;;10.07;8.40;;;3.00;99.90;;;;;;5070785;28;20773;-60
2023/12/20 01:20:36;;;;;;;9.57;7.87;;;3.10;99.90;;;;;;5075361;28;20251;-60
2023/12/20 01:23:03;;;;;;;9.33;7.40;;;3.00;99.90;;;;;;5075387;28;20203;-61
2023/12/20 01:25:30;;;;;;;11.43;9.13;;;3.00;99.90;;;;;;5066940;28;20262;-60
2023/12/20 01:27:58;;;;;;;13.20;10.23;;;3.00;99.90;;;;;;5066287;28;20223;-61
2023/12/20 01:30:25;;;;;;;11.87;9.27;;;3.00;99.90;;;;;;5074988;28;20203;-60
2023/12/20 01:32:52;;;;;;;9.47;8.03;;;3.00;99.90;;;;;;5075060;28;20318;-60
2023/12/20 01:35:19;;;;;;;11.50;9.70;;;3.00;99.90;;;;;;5074871;28;20249;-60
2023/12/20 01:37:46;;;;;;;9.33;8.33;;;3.10;99.90;;;;;;5068989;28;20302;-61
2023/12/20 01:40:13;;;;;;;10.60;8.50;;;3.00;99.90;;;;;;5056978;28;20258;-60
2023/12/20 01:42:40;;;;;;;12.20;8.87;;;3.20;99.90;;;;;;5073645;28;20252;-60
2023/12/20 01:45:09;;;;;;;10.83;8.87;;;3.30;99.90;;;;;;5074940;28;20200;-60
2023/12/20 01:47:37;;;;;;;10.33;8.60;;;3.20;99.90;;;;;;5073118;28;20223;-60
2023/12/20 01:50:07;;;;;;;11.43;9.33;;;3.10;99.90;;;;;;5071102;28;20204;-60
2023/12/20 01:52:35;;;;;;;10.70;8.23;;;3.10;99.90;;;;;;5065126;28;20271;-60
2023/12/20 01:55:04;;;;;;;13.40;9.17;;;3.00;99.90;;;;;;5074328;28;20221;-60
2023/12/20 01:57:30;;;;;;;9.77;8.70;;;3.00;99.90;;;;;;5074229;28;20220;-60
2023/12/20 01:59:58;;;;;;;13.73;9.50;;;3.00;99.90;;;;;;5065026;28;20200;-60
2023/12/20 02:02:29;;;;;;;9.47;8.37;;;3.00;99.90;;;;;;5063532;28;20250;-60
2023/12/20 02:04:56;;;;;;;13.93;9.40;;;3.00;99.90;;;;;;5057270;28;20201;-60
2023/12/20 02:07:23;;;;;;;11.43;9.37;;;3.00;99.90;;;;;;5072037;28;20783;-60
2023/12/20 02:09:51;;;;;;;12.10;9.80;;;3.10;99.90;;;;;;5074324;28;20256;-60
2023/12/20 02:12:18;;;;;;;16.37;9.70;;;3.10;99.90;;;;;;5074626;28;20256;-60
2023/12/20 02:14:45;;;;;;;15.10;10.40;;;3.20;99.90;;;;;;5073986;28;20200;-60
2023/12/20 02:17:12;;;;;;;9.97;8.93;;;3.10;99.90;;;;;;5055274;28;20263;-60
2023/12/20 02:19:40;;;;;;;12.50;9.40;;;3.10;99.90;;;;;;5065828;28;20228;-61
2023/12/20 02:22:10;;;;;;;12.57;8.93;;;3.20;99.90;;;;;;5074562;28;20260;-60
2023/12/20 02:24:36;;;;;;;11.03;8.93;;;3.20;99.90;;;;;;5069692;28;20704;-60
2023/12/20 02:27:05;;;;;;;9.67;8.00;;;3.20;99.90;;;;;;5057625;28;20200;-60
2023/12/20 02:29:33;;;;;;;11.57;9.00;;;3.20;99.90;;;;;;5063894;28;20204;-60
2023/12/20 02:32:00;;;;;;;11.90;9.20;;;3.20;99.90;;;;;;5068720;28;20244;-60
2023/12/20 02:34:26;;;;;;;10.87;8.77;;;3.10;99.90;;;;;;5074470;28;20224;-60
2023/12/20 02:36:53;;;;;;;13.53;9.03;;;3.10;99.90;;;;;;5074072;28;20255;-61
2023/12/20 02:39:22;;;;;;;8.77;7.87;;;3.10;99.90;;;;;;5073885;28;20208;-60
2023/12/20 02:41:50;;;;;;;9.97;8.97;;;3.10;99.90;;;;;;5052954;28;20274;-60
2023/12/20 02:44:16;;;;;;;11.37;8.63;;;3.10;99.90;;;;;;5062490;28;20260;-60
2023/12/20 02:46:43;;;;;;;11.87;8.73;;;3.10;99.90;;;;;;5061158;28;20587;-60
2023/12/20 02:49:10;;;;;;;10.53;9.43;;;3.10;99.90;;;;;;5069498;28;20240;-60
2023/12/20 02:51:38;;;;;;;9.73;8.23;;;3.10;99.90;;;;;;5073130;28;20199;-60
2023/12/20 02:54:05;;;;;;;11.83;9.17;;;3.10;99.90;;;;;;5055783;28;20276;-60
2023/12/20 02:56:34;;;;;;;11.57;8.80;;;3.10;99.90;;;;;;5063073;28;20283;-60
2023/12/20 02:59:01;;;;;;;12.70;10.33;;;3.10;99.90;;;;;;5073753;28;20223;-60
2023/12/20 03:01:28;;;;;;;11.67;9.40;;;3.00;99.90;;;;;;5073952;28;20199;-60
2023/12/20 03:03:55;;;;;;;12.30;10.23;;;3.10;99.90;;;;;;5073766;28;20262;-60
2023/12/20 03:06:21;;;;;;;12.60;10.13;;;3.10;99.90;;;;;;5060870;28;20258;-60
2023/12/20 03:08:48;;;;;;;10.57;8.43;;;3.10;99.90;;;;;;5064112;28;20750;-60
2023/12/20 03:11:15;;;;;;;9.53;8.47;;;3.20;99.90;;;;;;5073772;28;20249;-60
2023/12/20 03:13:44;;;;;;;10.43;8.83;;;3.20;99.90;;;;;;5073667;28;20227;-60
2023/12/20 03:16:11;;;;;;;14.70;10.57;;;3.30;99.90;;;;;;5073645;28;20249;-60
2023/12/20 03:18:38;;;;;;;14.27;11.53;;;3.30;99.90;;;;;;5063094;28;20285;-60
2023/12/20 03:21:06;;;;;;;8.80;7.93;;;3.30;99.90;;;;;;5062911;28;20202;-60
2023/12/20 03:23:33;;;;;;;12.73;8.93;;;3.30;99.90;;;;;;5054889;28;20269;-60
2023/12/20 03:26:00;;;;;;;12.90;8.53;;;3.40;99.90;;;;;;5053435;28;20208;-60
2023/12/20 03:28:27;;;;;;;11.60;9.13;;;3.50;99.90;;;;;;5053050;28;20224;-60
2023/12/20 03:30:56;;;;;;;11.40;8.97;;;3.50;99.90;;;;;;5050778;28;21100;-61
2023/12/20 03:33:23;;;;;;;10.80;7.93;;;3.50;99.90;;;;;;5058445;28;20274;-60
2023/12/20 03:35:49;;;;;;;11.00;8.20;;;3.50;99.90;;;;;;5073189;28;20204;-60
2023/12/20 03:38:16;;;;;;;9.53;8.00;;;3.50;99.90;;;;;;5072881;28;20269;-60
2023/12/20 03:40:43;;;;;;;13.37;9.13;;;3.50;99.90;;;;;;5073132;28;20199;-60
2023/12/20 03:43:10;;;;;;;9.20;8.20;;;3.50;99.90;;;;;;5071835;28;20257;-60
2023/12/20 03:45:37;;;;;;;8.30;6.93;;;3.50;99.90;;;;;;5055816;28;21200;-60
2023/12/20 03:48:06;;;;;;;11.20;8.60;;;3.50;99.90;;;;;;5051999;28;20287;-60
2023/12/20 03:50:33;;;;;;;10.33;8.17;;;3.50;99.90;;;;;;5053166;28;20672;-61
2023/12/20 03:53:00;;;;;;;9.97;8.93;;;3.60;99.90;;;;;;5066338;28;20200;-60
2023/12/20 03:55:27;;;;;;;10.90;9.33;;;3.60;99.90;;;;;;5072718;28;20211;-61
2023/12/20 03:57:54;;;;;;;9.83;7.23;;;3.60;99.90;;;;;;5055726;28;20306;-61
2023/12/20 04:00:21;;;;;;;9.93;7.23;;;3.60;99.90;;;;;;5076822;28;20203;-60
2023/12/20 04:02:48;;;;;;;9.37;8.37;;;3.60;99.90;;;;;;5055899;28;20200;-60
2023/12/20 04:05:17;;;;;;;7.83;7.03;;;3.60;99.90;;;;;;5053358;28;20231;-61
2023/12/20 04:07:44;;;;;;;10.67;8.10;;;3.60;99.90;;;;;;5053061;28;20728;-61
2023/12/20 04:10:11;;;;;;;11.03;8.17;;;3.60;99.90;;;;;;5054744;28;20231;-61
2023/12/20 04:12:37;;;;;;;10.50;9.40;;;3.60;99.90;;;;;;5064395;28;20198;-60
2023/12/20 04:15:09;;;;;;;12.93;8.63;;;3.60;99.90;;;;;;5073710;28;20218;-60
2023/12/20 04:17:36;;;;;;;9.73;7.97;;;3.60;99.90;;;;;;5077723;28;20229;-60
2023/12/20 04:20:03;;;;;;;8.70;7.53;;;3.70;99.90;;;;;;5072315;28;20207;-60
2023/12/20 04:22:31;;;;;;;11.27;8.30;;;3.80;99.90;;;;;;5062404;28;20290;-60
2023/12/20 04:24:58;;;;;;;8.87;7.97;;;3.80;99.90;;;;;;5065985;28;20200;-60
2023/12/20 04:27:25;;;;;;;9.13;7.43;;;3.70;99.90;;;;;;5072113;28;20225;-60
2023/12/20 04:29:52;;;;;;;12.00;8.50;;;3.80;99.90;;;;;;5071766;28;20234;-60
2023/12/20 04:32:19;;;;;;;10.17;7.80;;;3.80;99.90;;;;;;5057254;28;20194;-60
2023/12/20 04:34:46;;;;;;;10.20;8.30;;;3.80;99.90;;;;;;5052106;28;20260;-60
2023/12/20 04:37:13;;;;;;;10.73;8.43;;;3.70;99.90;;;;;;5063679;28;20225;-60
2023/12/20 04:39:41;;;;;;;11.50;10.23;;;3.70;99.90;;;;;;5071220;28;20286;-60
2023/12/20 04:42:08;;;;;;;9.60;8.63;;;3.60;99.90;;;;;;5071953;28;20295;-60
2023/12/20 04:44:35;;;;;;;10.60;8.83;;;3.60;99.90;;;;;;5072205;28;20216;-60
2023/12/20 04:47:03;;;;;;;11.50;8.53;;;3.70;99.90;;;;;;5064755;28;20698;-60
2023/12/20 04:49:30;;;;;;;13.27;9.97;;;3.60;99.90;;;;;;5044466;28;20235;-60
2023/12/20 04:51:57;;;;;;;10.37;8.50;;;3.60;99.90;;;;;;5049228;28;20199;-60
2023/12/20 04:54:24;;;;;;;10.13;8.20;;;3.70;99.90;;;;;;5060419;28;20264;-60
2023/12/20 04:56:55;;;;;;;9.67;8.47;;;3.70;99.90;;;;;;5071932;28;20203;-60
2023/12/20 04:59:22;;;;;;;8.47;7.67;;;3.70;99.90;;;;;;5056682;28;20622;-60
2023/12/20 05:01:48;;;;;;;10.30;9.00;;;3.80;99.90;;;;;;5044597;28;20202;-60
2023/12/20 05:04:15;;;;;;;10.00;9.00;;;3.80;99.90;;;;;;5055728;28;20192;-60
2023/12/20 05:06:42;;;;;;;12.50;9.13;;;3.80;99.90;;;;;;5051943;28;20654;-60
2023/12/20 05:09:10;;;;;;;11.93;9.27;;;3.70;99.90;;;;;;5067063;28;20234;-60
2023/12/20 05:11:37;;;;;;;12.90;9.67;;;3.70;99.90;;;;;;5072113;28;20582;-60
2023/12/20 05:14:05;;;;;;;16.83;10.37;;;3.60;99.90;;;;;;5051254;28;20275;-60
2023/12/20 05:16:32;;;;;;;12.47;10.23;;;3.60;99.90;;;;;;5048922;28;20230;-60
2023/12/20 05:19:00;;;;;;;17.23;10.10;;;3.70;99.90;;;;;;5039965;28;20223;-60
2023/12/20 05:21:27;;;;;;;11.47;10.13;;;3.70;99.90;;;;;;5053509;28;20290;-60
2023/12/20 05:23:54;;;;;;;13.93;9.30;;;3.60;99.90;;;;;;5057697;28;20219;-60
2023/12/20 05:26:21;;;;;;;11.63;9.77;;;3.70;99.90;;;;;;5053052;28;20199;-60
2023/12/20 05:28:48;;;;;;;13.40;9.50;;;3.70;99.90;;;;;;5063591;28;20218;-60
2023/12/20 05:31:16;;;;;;;11.97;10.07;;;3.60;99.90;;;;;;5071590;28;20265;-61
2023/12/20 05:33:43;;;;;;;10.97;9.13;;;3.60;99.90;;;;;;5072651;28;20220;-60
2023/12/20 05:36:13;;;;;;;13.83;10.10;;;3.60;99.90;;;;;;5056895;28;20203;-60
2023/12/20 05:38:40;;;;;;;12.47;10.43;;;3.60;99.90;;;;;;5052373;28;20281;-60
2023/12/20 05:41:07;;;;;;;13.27;9.57;;;3.60;99.90;;;;;;5052563;28;20200;-60
2023/12/20 05:43:34;;;;;;;13.10;9.73;;;3.70;99.90;;;;;;5051260;28;20204;-60
2023/12/20 05:46:01;;;;;;;15.53;10.17;;;3.70;99.90;;;;;;5052430;28;20200;-60
2023/12/20 05:48:29;;;;;;;11.93;9.57;;;3.70;99.90;;;;;;5057149;28;20965;-60
2023/12/20 05:50:56;;;;;;;11.30;9.27;;;3.70;99.90;;;;;;5050447;28;20205;-60
2023/12/20 05:53:23;;;;;;;12.60;10.47;;;3.70;99.90;;;;;;5054217;28;20201;-60
2023/12/20 05:55:50;;;;;;;12.00;9.70;;;;;;;;;;5044827;28;20200;-60
2023/12/20 05:58:17;;;;;;;11.50;9.43;;;3.70;99.90;;;;;;5050451;28;20224;-60
2023/12/20 06:00:44;;;;;;;11.73;8.63;;;3.60;99.90;;;;;;5050409;28;20215;-60
2023/12/20 06:03:11;;;;;;;11.00;8.23;;;3.70;99.90;;;;;;5056687;28;20253;-60
2023/12/20 06:05:39;;;;;;;11.00;8.37;;;3.60;99.90;;;;;;5046385;28;20200;-60
2023/12/20 06:08:07;;;;;;;10.50;9.33;;;3.70;99.90;;;;;;5057002;28;20284;-60
2023/12/20 06:10:34;;;;;;;13.48;11.07;;;3.70;99.90;;;;;;5047893;28;20447;-61
2023/12/20 06:13:01;;;;;;;12.87;11.57;;;3.70;99.90;;;;;;5053641;28;20272;-61
2023/12/20 06:15:28;;;;;;;11.97;10.40;;;3.70;99.90;;;;;;5057652;28;20227;-63
2023/12/20 06:17:55;;;;;;;13.47;11.53;;;3.70;99.90;;;;;;5053223;28;20586;-62
2023/12/20 06:20:22;;;;;;;14.20;12.33;;;3.70;99.90;;;;;;5049375;28;20247;-63
2023/12/20 06:22:50;;;;;;;14.80;11.23;;;3.70;99.90;;;;;;5054486;28;20204;-68
2023/12/20 06:25:17;;;;;;;13.20;11.07;;;3.70;99.90;;;;;;5054233;28;20283;-67
2023/12/20 06:27:44;;;;;;;13.77;11.67;;;3.70;99.90;;;;;;5054002;28;20251;-70
2023/12/20 06:30:12;;;;;;;11.43;10.10;;;3.70;99.90;;;;;;5057336;28;20689;-74
2023/12/20 06:32:39;;;;;;;14.90;11.10;;;3.60;99.90;;;;;;5049470;28;20257;-70
2023/12/20 06:35:07;;;;;;;14.93;11.63;;;3.70;99.90;;;;;;5051866;28;20222;-70
2023/12/20 06:37:34;;;;;;;14.50;11.33;;;3.70;99.90;;;;;;5053274;28;20215;-69
2023/12/20 06:40:02;;;;;;;13.90;11.77;;;3.70;99.90;;;;;;5053707;28;20211;-69
2023/12/20 06:42:29;;;;;;;11.87;10.67;;;3.70;99.90;;;;;;5045616;28;20205;-63
2023/12/20 06:44:56;;;;;;;13.53;10.57;;;3.70;99.90;;;;;;5051578;28;20196;-60
2023/12/20 06:47:23;;;;;;;12.13;10.90;;;3.80;99.90;;;;;;5034084;28;20280;-60
2023/12/20 06:49:50;;;;;;;11.13;9.67;;;3.70;99.90;;;;;;5050432;28;20198;-59
2023/12/20 06:52:17;;;;;;;13.27;10.00;;;3.70;99.90;;;;;;5045101;28;20201;-59
2023/12/20 06:54:44;;;;;;;14.43;10.50;;;3.80;99.90;;;;;;5051475;28;20215;-60
2023/12/20 06:57:12;;;;;;;14.23;10.40;;;3.90;99.90;;;;;;5060486;28;20292;-60
2023/12/20 06:59:40;;;;;;;15.80;10.73;;;4.00;99.90;;;;;;5049922;28;20626;-60
2023/12/20 07:02:07;;;;;;;22.57;12.63;;;4.00;99.90;;;;;;5055218;28;20680;-59
2023/12/20 07:04:34;;;;;;;14.33;10.53;;;4.00;99.90;;;;;;5049428;28;20206;-59
2023/12/20 07:07:01;;;;;;;12.93;8.73;;;3.90;99.90;;;;;;5034332;28;20257;-60
2023/12/20 07:09:28;;;;;;;13.37;9.47;;;4.00;99.90;;;;;;5039805;28;20266;-60
2023/12/20 07:11:56;;;;;;;10.67;7.97;;;4.00;99.90;;;;;;5039662;28;20266;-60
2023/12/20 07:14:24;;;;;;;8.33;7.23;;;4.00;99.90;;;;;;5033545;28;20224;-60
2023/12/20 07:16:53;;;;;;;11.10;8.40;;;4.00;99.90;;;;;;5040238;28;20245;-60
2023/12/20 07:19:20;;;;;;;11.70;8.37;;;4.00;99.90;;;;;;5041326;28;20551;-60
2023/12/20 07:21:47;;;;;;;8.33;7.50;;;4.00;99.90;;;;;;5037064;28;20197;-59
2023/12/20 07:24:14;;;;;;;9.77;8.40;;;4.00;99.90;;;;;;5041701;28;20247;-62
2023/12/20 07:26:40;;;;;;;8.70;7.80;;;4.00;99.90;;;;;;5052138;28;20212;-67
2023/12/20 07:29:07;;;;;;;12.87;8.23;;;4.00;99.90;;;;;;5051050;28;20220;-67
2023/12/20 07:31:36;;;;;;;11.70;9.50;;;4.10;99.90;;;;;;5053464;28;20203;-67
2023/12/20 07:34:03;;;;;;;12.00;8.90;;;4.10;99.90;;;;;;5053566;28;20196;-67
2023/12/20 07:36:29;;;;;;;8.13;7.30;;;4.00;99.90;;;;;;5054594;28;20202;-67
2023/12/20 07:38:56;;;;;;;9.70;8.43;;;4.00;99.90;;;;;;5054172;28;20291;-65
2023/12/20 07:41:23;;;;;;;14.20;8.80;;;4.00;99.90;;;;;;5089332;22;20207;-62
2023/12/20 07:43:51;;;;;;;15.43;8.97;;;4.00;99.90;;;;;;5068305;28;20222;-61
2023/12/20 07:46:18;;;;;;;13.40;9.27;;;4.10;99.90;;;;;;5068703;28;20218;-59
2023/12/20 07:48:47;;;;;;;13.83;9.57;;;4.10;99.90;;;;;;5070412;28;20233;-68
2023/12/20 07:51:14;;;;;;;22.27;10.37;;;4.10;99.90;;;;;;5072026;28;20196;-59
2023/12/20 07:53:40;;;;;;;13.53;9.00;;;4.10;99.90;;;;;;5069834;28;20647;-64
2023/12/20 07:56:16;;;;;;;12.13;9.97;;;4.10;99.90;;;;;;5048740;28;20215;-56
2023/12/20 07:58:43;;;;;;;17.83;9.97;;;4.10;99.90;;;;;;5049519;28;20653;-63
2023/12/20 08:01:10;;;;;;;11.67;9.27;;;4.10;99.90;;;;;;5051127;28;20289;-66
2023/12/20 08:03:37;;;;;;;12.53;9.10;;;4.10;99.90;;;;;;5051389;28;20219;-66
2023/12/20 08:06:05;;;;;;;17.23;10.70;;;4.10;99.90;;;;;;5051785;28;20241;-63
2023/12/20 08:08:32;;;;;;;16.73;9.87;;;4.10;99.90;;;;;;5052143;28;20253;-64
2023/12/20 08:11:00;;;;;;;10.20;8.93;;;4.10;99.90;;;;;;5051550;28;20231;-61
2023/12/20 08:13:27;;;;;;;11.63;9.03;;;4.20;99.90;;;;;;5051495;28;20228;-65
2023/12/20 08:15:55;;;;;;;15.13;9.83;;;4.30;99.90;;;;;;5051617;28;20273;-64
2023/12/20 08:18:22;;;;;;;11.60;8.73;;;4.30;99.90;;;;;;5051396;28;20211;-65
2023/12/20 08:20:49;;;;;;;10.97;9.07;;;4.40;99.90;;;;;;5051462;28;20201;-64
2023/12/20 08:23:18;;;;;;;9.80;8.83;;;4.30;99.90;;;;;;5051230;28;20278;-64
2023/12/20 08:25:45;;;;;;;13.83;10.63;;;4.30;99.90;;;;;;5051489;28;20192;-65
2023/12/20 08:28:12;;;;;;;26.50;14.13;;;4.30;99.90;;;;;;5051418;28;20255;-63
2023/12/20 08:30:40;;;;;;;49.57;25.10;;;4.30;99.90;;;;;;5058407;28;20696;-68
2023/12/20 08:33:11;;;;;;;27.63;18.37;;;4.30;99.90;;;;;;5051276;28;20219;-67
2023/12/20 08:35:38;;;;;;;21.60;14.20;;;4.30;99.90;;;;;;5051387;28;20251;-66
2023/12/20 08:38:05;;;;;;;14.60;12.30;;;4.40;99.90;;;;;;5050746;28;20201;-67
2023/12/20 08:40:33;;;;;;;19.57;13.17;;;4.30;99.90;;;;;;5051017;28;20207;-67
2023/12/20 08:43:00;;;;;;;19.90;13.63;;;4.30;99.90;;;;;;5058064;28;20703;-66
2023/12/20 08:45:27;;;;;;;15.70;11.17;;;4.40;99.90;;;;;;5055894;28;20249;-66
2023/12/20 08:47:54;;;;;;;16.33;9.67;;;4.40;99.90;;;;;;5058170;28;20253;-68
2023/12/20 08:50:21;;;;;;;10.60;9.40;;;4.40;99.90;;;;;;5050910;28;20259;-71
2023/12/20 08:52:48;;;;;;;13.13;9.97;;;4.50;99.90;;;;;;5045661;28;20222;-62
2023/12/20 08:55:16;;;;;;;9.00;8.10;;;4.50;99.90;;;;;;5050912;28;20234;-60
2023/12/20 08:57:44;;;;;;;11.03;8.80;;;4.50;99.90;;;;;;5050896;28;20207;-62
2023/12/20 09:00:13;;;;;;;10.53;9.03;;;4.60;99.90;;;;;;5050708;28;20195;-66
2023/12/20 09:02:38;;;;;;;12.40;8.43;;;4.60;99.90;;;;;;5050371;28;20710;-66
2023/12/20 09:05:06;;;;;;;11.40;8.40;;;4.60;99.90;;;;;;5055773;28;20249;-65
2023/12/20 09:07:33;;;;;;;13.43;8.33;;;4.60;99.90;;;;;;5053534;28;20874;-69
2023/12/20 09:10:03;;;;;;;12.90;9.23;;;4.60;99.90;;;;;;5062051;28;20195;-67
2023/12/20 09:12:33;;;;;;;10.47;9.37;;;4.70;99.90;;;;;;5065668;28;20239;-64
2023/12/20 09:15:03;;;;;;;16.17;9.93;;;4.70;99.90;;;;;;5052585;28;20227;-61
2023/12/20 09:17:30;;;;;;;12.07;9.70;;;4.70;99.90;;;;;;5050305;28;20257;-66
2023/12/20 09:19:56;;;;;;;15.33;10.00;;;4.70;99.90;;;;;;5061552;28;20678;-65
2023/12/20 09:22:23;;;;;;;13.57;9.10;;;4.90;99.90;;;;;;5056997;28;20223;-67
2023/12/20 09:24:50;;;;;;;10.00;9.00;;;4.90;99.90;;;;;;5061699;28;20620;-66
2023/12/20 09:27:17;;;;;;;10.20;8.90;;;4.90;99.90;;;;;;5059306;28;20192;-68
2023/12/20 09:29:44;;;;;;;11.57;8.83;;;5.00;99.90;;;;;;5061170;28;20215;-66
2023/12/20 09:32:12;;;;;;;13.77;10.43;;;5.00;99.90;;;;;;5056276;28;20282;-66
2023/12/20 09:34:39;;;;;;;12.37;10.33;;;5.00;99.90;;;;;;5061968;28;20367;-66
2023/12/20 09:37:07;;;;;;;12.47;10.53;;;5.00;99.90;;;;;;5056328;28;20204;-65
2023/12/20 09:39:34;;;;;;;12.10;10.67;;;5.00;99.90;;;;;;5059055;28;20212;-64
2023/12/20 09:42:03;;;;;;;12.57;10.10;;;5.10;99.90;;;;;;5074534;28;20235;-62
2023/12/20 09:44:31;;;;;;;12.50;11.03;;;5.20;99.90;;;;;;5060979;28;20208;-66
2023/12/20 09:46:58;;;;;;;10.10;8.50;;;5.20;99.90;;;;;;5056460;28;20250;-63
2023/12/20 09:49:28;;;;;;;12.43;9.63;;;5.20;99.90;;;;;;5058050;28;20195;-62
2023/12/20 09:51:56;;;;;;;11.87;8.80;;;5.20;99.90;;;;;;5058378;28;20950;-62
2023/12/20 09:54:24;;;;;;;11.63;8.73;;;5.20;99.90;;;;;;5063336;28;20232;-63
2023/12/20 09:56:51;;;;;;;10.73;9.63;;;5.20;99.90;;;;;;5066257;28;20241;-66
2023/12/20 09:59:18;;;;;;;10.70;9.47;;;5.20;99.90;;;;;;5052534;28;20282;-58
2023/12/20 10:01:45;;;;;;;12.70;10.03;;;5.30;99.90;;;;;;5054614;28;20245;-57
2023/12/20 10:04:14;;;;;;;12.00;9.93;;;5.30;99.90;;;;;;5053177;28;20250;-57
2023/12/20 10:06:43;;;;;;;12.97;10.43;;;5.30;99.90;;;;;;5053993;28;20203;-57
2023/12/20 10:09:10;;;;;;;18.40;11.30;;;5.40;99.90;;;;;;5052658;28;20204;-58
2023/12/20 10:11:38;;;;;;;13.90;10.87;;;5.40;99.90;;;;;;5063827;28;20252;-56
2023/12/20 10:14:05;;;;;;;12.03;10.63;;;5.50;99.90;;;;;;5072131;28;20294;-58
2023/12/20 10:16:33;;;;;;;13.87;11.20;;;5.50;99.90;;;;;;5049404;28;20229;-58
2023/12/20 10:19:02;;;;;;;13.40;12.03;;;5.50;99.90;;;;;;5050119;28;20207;-58
2023/12/20 10:21:29;;;;;;;14.13;12.47;;;5.50;99.90;;;;;;5048485;28;20250;-60
2023/12/20 10:23:58;;;;;;;13.60;10.47;;;5.50;99.90;;;;;;5048188;28;20277;-60
2023/12/20 10:26:26;;;;;;;13.63;9.97;;;5.40;99.90;;;;;;5068087;28;20215;-58
2023/12/20 10:28:55;;;;;;;13.37;10.17;;;5.30;99.90;;;;;;5073451;28;20224;-59
2023/12/20 10:31:29;;;;;;;12.20;9.70;;;5.30;99.90;;;;;;5060025;28;20736;-58
2023/12/20 10:33:58;;;;;;;11.83;9.87;;;5.30;99.90;;;;;;5054657;28;20192;-58
2023/12/20 10:36:27;;;;;;;11.20;9.27;;;5.30;99.90;;;;;;5053764;28;20657;-59
2023/12/20 10:38:54;;;;;;;10.33;9.33;;;5.30;99.90;;;;;;5057022;28;20287;-58
2023/12/20 10:41:28;;;;;;;11.77;9.83;;;5.30;99.90;;;;;;5073728;28;20322;-59
2023/12/20 10:43:59;;;;;;;11.77;10.40;;;5.40;99.90;;;;;;5063890;28;20290;-59
2023/12/20 10:46:28;;;;;;;13.90;10.07;;;5.40;99.90;;;;;;5065166;28;20617;-58
2023/12/20 10:48:55;;;;;;;12.73;10.33;;;5.40;99.90;;;;;;5073092;28;20654;-58
2023/12/20 10:51:24;;;;;;;18.90;9.83;;;5.40;99.90;;;;;;5071997;28;20289;-58
2023/12/20 10:53:51;;;;;;;11.50;10.03;;;5.50;99.90;;;;;;5065499;28;20234;-57
2023/12/20 10:56:19;;;;;;;10.27;9.13;;;5.60;99.90;;;;;;5065043;28;20276;-60
2023/12/20 10:58:49;;;;;;;13.83;8.90;;;5.60;99.90;;;;;;5069474;28;20587;-61
2023/12/20 11:01:17;;;;;;;11.17;9.13;;;5.70;99.90;;;;;;5063146;28;20203;-67
2023/12/20 11:03:48;;;;;;;9.63;8.23;;;5.80;99.90;;;;;;5064838;28;20267;-62
2023/12/20 11:06:29;;;;;;;9.70;8.80;;;5.90;99.90;;;;;;5058966;28;20241;-59
2023/12/20 11:09:09;;;;;;;9.77;8.80;;;5.90;99.90;;;;;;5052461;28;20203;-59
2023/12/20 11:11:39;;;;;;;11.67;8.53;;;4.90;99.90;;;;;;5052632;28;20206;-60
2023/12/20 11:14:15;;;;;;;10.07;9.17;;;5.80;99.90;;;;;;5052807;28;20203;-59
2023/12/20 11:16:43;;;;;;;15.07;10.07;;;5.90;99.90;;;;;;5052680;28;20221;-59
2023/12/20 11:19:14;;;;;;;11.97;10.13;;;5.90;99.90;;;;;;5052599;28;20254;-60
2023/12/20 11:21:41;;;;;;;9.73;8.77;;;5.90;99.90;;;;;;5056272;28;20230;-60
2023/12/20 11:24:08;;;;;;;11.03;9.80;;;5.90;99.90;;;;;;5048023;28;20287;-59
2023/12/20 11:26:35;;;;;;;12.00;9.43;;;6.00;99.90;;;;;;5052447;28;20195;-66
2023/12/20 11:29:31;;;;;;;14.57;10.27;;;6.00;99.90;;;;;;5052614;28;20199;-65
2023/12/20 11:32:00;;;;;;;13.37;9.90;;;6.10;99.90;;;;;;5051882;28;20322;-58
2023/12/20 11:34:29;;;;;;;13.10;10.17;;;6.10;99.90;;;;;;5051963;28;20207;-58
2023/12/20 11:37:00;;;;;;;11.23;9.57;;;6.10;99.90;;;;;;5050677;28;20639;-58
2023/12/20 11:39:28;;;;;;;12.17;10.80;;;6.10;99.90;;;;;;5050429;28;20222;-58
2023/12/20 11:41:57;;;;;;;15.17;11.83;;;6.10;99.90;;;;;;5050708;28;20658;-58
2023/12/20 11:44:26;;;;;;;11.97;10.37;;;6.10;99.90;;;;;;5050928;28;20284;-58
2023/12/20 11:46:56;;;;;;;15.27;10.73;;;6.10;99.90;;;;;;5050709;28;20196;-58
2023/12/20 11:49:26;;;;;;;14.73;11.83;;;6.20;99.90;;;;;;5051206;28;20196;-58
2023/12/20 11:51:54;;;;;;;11.73;9.97;;;6.20;99.90;;;;;;5045791;28;20303;-58
2023/12/20 11:54:20;;;;;;;11.93;10.40;;;6.10;99.90;;;;;;5059588;28;20663;-58
2023/12/20 11:56:52;;;;;;;14.43;10.17;;;6.10;99.90;;;;;;5052224;28;20250;-57
2023/12/20 11:59:19;;;;;;;11.17;10.10;;;6.20;99.90;;;;;;5053111;28;20200;-57
2023/12/20 12:01:56;;;;;;;11.13;10.03;;;6.20;99.90;;;;;;5051937;28;20280;-58
2023/12/20 12:04:24;;;;;;;12.37;10.63;;;6.20;99.90;;;;;;5051936;28;20204;-57
2023/12/20 12:06:54;;;;;;;13.43;12.03;;;6.30;99.90;;;;;;5052102;28;20596;-58
2023/12/20 12:09:21;;;;;;;14.70;11.63;;;6.20;99.90;;;;;;5050686;28;20258;-57
2023/12/20 12:11:48;;;;;;;24.13;16.70;;;6.20;99.90;;;;;;5052515;28;20231;-58
2023/12/20 12:14:15;;;;;;;12.70;11.40;;;6.20;99.90;;;;;;5051886;28;20255;-58
2023/12/20 12:16:43;;;;;;;23.60;15.10;;;6.20;99.90;;;;;;5051728;28;20266;-58
2023/12/20 12:19:21;;;;;;;21.67;12.30;;;6.10;99.90;;;;;;5051319;28;20286;-58
2023/12/20 12:21:50;;;;;;;16.87;12.40;;;6.20;99.90;;;;;;5051634;28;20228;-58
2023/12/20 12:24:22;;;;;;;13.17;10.27;;;6.20;99.90;;;;;;5051733;28;20343;-58
2023/12/20 12:26:54;;;;;;;20.37;14.97;;;6.30;99.90;;;;;;5051479;28;20283;-58
2023/12/20 12:29:21;;;;;;;23.30;16.17;;;6.30;99.90;;;;;;5051139;28;20242;-58
2023/12/20 12:31:48;;;;;;;27.27;17.23;;;6.30;99.90;;;;;;5051623;28;20281;-58
2023/12/20 12:34:16;;;;;;;22.07;15.87;;;6.30;99.90;;;;;;5051344;28;20246;-58
2023/12/20 12:36:43;;;;;;;17.20;11.27;;;6.30;99.90;;;;;;5051049;28;20235;-58
2023/12/20 12:39:14;;;;;;;15.20;10.13;;;6.40;99.90;;;;;;5045027;28;20200;-58
2023/12/20 12:41:43;;;;;;;11.73;8.13;;;6.40;99.90;;;;;;5050729;28;20231;-58
2023/12/20 12:44:10;;;;;;;9.77;8.23;;;6.40;99.90;;;;;;5051595;28;20266;-58
2023/12/20 12:46:37;;;;;;;13.20;9.93;;;6.50;99.90;;;;;;5051377;28;20199;-59
2023/12/20 12:49:03;;;;;;;13.17;9.70;;;6.50;99.90;;;;;;5044470;28;20200;-58